Time;durP1;ratioP1;P1;durP2;ratioP2;P2;SDS_P1;SDS_P2;PMS_P1;PMS_P2;Temp;Humidity;BMP_temperature;BMP_pressure;BME280_temperature;BME280_humidity;BME280_pressure;Samples;Min_cycle;Max_cycle;Signal;HPM_P1;HPM_P2
2022/05/17 00:01:59;;;;;;;2.78;0.70;;;;;;;6.60;59.16;102153.31;4898502;29;20195;-78
2022/05/17 00:04:25;;;;;;;1.83;0.98;;;;;;;6.44;59.02;102140.47;4900452;29;20051;-78
2022/05/17 00:06:50;;;;;;;2.83;0.95;;;;;;;6.11;59.09;102091.75;4882764;29;20028;-78
2022/05/17 00:09:17;;;;;;;2.13;0.60;;;;;;;6.47;59.64;102164.28;4899469;29;20020;-78
2022/05/17 00:11:46;;;;;;;3.25;0.80;;;;;;;6.29;60.15;102142.72;4883441;29;20032;-79
2022/05/17 00:14:12;;;;;;;1.98;0.88;;;;;;;6.24;59.80;102139.59;4867831;29;20043;-78
2022/05/17 00:16:39;;;;;;;1.58;0.60;;;;;;;6.38;60.24;102167.75;4898946;29;20044;-78
2022/05/17 00:19:05;;;;;;;4.50;0.90;;;;;;;6.17;60.71;102142.97;4899631;29;20455;-79
2022/05/17 00:21:30;;;;;;;2.25;0.60;;;;;;;6.23;61.48;102163.81;4898439;29;20151;-79
2022/05/17 00:23:56;;;;;;;3.08;0.80;;;;;;;6.19;62.24;102165.03;4899882;29;20036;-79
2022/05/17 00:26:21;;;;;;;2.67;0.80;;;;;;;6.09;62.64;102155.19;4883089;29;20043;-78
2022/05/17 00:28:47;;;;;;;2.28;0.55;;;;;;;6.11;62.54;102163.06;4864644;29;20370;-78
2022/05/17 00:31:12;;;;;;;1.10;0.63;;;;;;;6.17;62.45;102175.03;4864874;29;20127;-78
2022/05/17 00:33:38;;;;;;;5.57;0.85;;;;;;;6.08;63.06;102161.50;4859288;29;20348;-78
2022/05/17 00:36:04;;;;;;;2.00;0.80;;;;;;;6.01;63.17;102162.19;4898821;29;20025;-79
2022/05/17 00:38:29;;;;;;;2.83;0.85;;;;;;;5.90;64.15;102157.78;4903146;29;20348;-79
2022/05/17 00:40:55;;;;;;;2.47;0.80;;;;;;;5.95;64.52;102173.41;4886787;29;20036;-79
2022/05/17 00:46:51;;;;;;;2.83;0.90;;;;;;;5.79;65.68;102169.38;4896773;29;20031;-78
2022/05/17 00:49:26;;;;;;;3.40;0.85;;;;;;;5.76;65.71;102168.81;4891088;29;20061;-78
2022/05/17 00:51:56;;;;;;;5.47;0.90;;;;;;;5.80;66.57;102180.94;4898376;29;20127;-79
2022/05/17 00:54:21;;;;;;;1.25;0.60;;;;;;;5.75;66.76;102184.00;4883031;29;20028;-79
2022/05/17 00:57:25;;;;;;;1.77;0.90;;;;;;;5.69;68.02;102173.00;4899417;29;20033;-78
2022/05/17 00:59:52;;;;;;;1.33;0.80;;;;;;;5.65;68.36;102183.09;4882481;29;20100;-78
2022/05/17 01:02:18;;;;;;;2.45;0.90;;;;;;;5.59;68.63;102180.97;4898900;29;20120;-79
2022/05/17 01:04:43;;;;;;;1.85;0.80;;;;;;;5.56;69.36;102186.56;4881486;29;20300;-79
2022/05/17 01:07:13;;;;;;;1.10;0.70;;;;;;;5.35;69.22;102151.88;4882436;29;20028;-78
2022/05/17 01:09:39;;;;;;;2.95;1.05;;;;;;;5.44;69.68;102166.28;4882312;29;20020;-78
2022/05/17 01:12:05;;;;;;;2.03;0.95;;;;;;;5.19;69.26;102123.84;4897044;29;20481;-79
2022/05/17 01:17:15;;;;;;;1.73;0.85;;;;;;;5.23;69.52;102121.78;4897879;29;20084;-79
2022/05/17 01:19:55;;;;;;;3.17;1.05;;;;;;;5.60;70.02;102180.84;4897681;29;20036;-79
2022/05/17 01:22:21;;;;;;;1.73;1.00;;;;;;;5.42;70.35;102167.25;4891883;29;20143;-78
2022/05/17 01:24:47;;;;;;;2.00;0.90;;;;;;;5.35;70.60;102162.56;4899281;29;20112;-78
2022/05/17 01:27:32;;;;;;;2.30;0.90;;;;;;;5.35;70.84;102170.56;4896913;29;20028;-78
2022/05/17 01:29:57;;;;;;;1.88;0.90;;;;;;;5.34;71.63;102184.91;4879666;29;20048;-78
2022/05/17 01:32:23;;;;;;;1.83;0.90;;;;;;;5.29;72.24;102187.09;4880163;29;20029;-78
2022/05/17 01:34:49;;;;;;;1.83;1.10;;;;;;;5.24;73.11;102187.50;4880850;29;20029;-78
2022/05/17 01:37:16;;;;;;;5.65;1.05;;;;;;;5.26;73.21;102184.69;4884283;29;20100;-78
2022/05/17 01:39:44;;;;;;;1.60;0.93;;;;;;;5.22;73.27;102183.28;4899366;29;20025;-78
2022/05/17 01:42:10;;;;;;;1.60;1.10;;;;;;;5.04;74.11;102164.34;4895769;29;20116;-78
2022/05/17 01:44:36;;;;;;;5.05;1.17;;;;;;;4.80;74.59;102129.88;4898274;29;20028;-78
2022/05/17 01:47:02;;;;;;;1.85;1.00;;;;;;;5.11;74.77;102186.84;4897013;29;20119;-78
2022/05/17 01:49:27;;;;;;;1.60;0.93;;;;;;;5.09;74.57;102188.81;4882100;29;20028;-78
2022/05/17 01:51:52;;;;;;;3.40;0.90;;;;;;;5.15;75.70;102196.28;4881002;29;20135;-78
2022/05/17 01:54:18;;;;;;;3.30;1.20;;;;;;;5.04;75.75;102177.69;4897485;29;20168;-78
2022/05/17 01:56:44;;;;;;;2.15;0.90;;;;;;;4.70;75.94;102136.03;4895393;29;20033;-78
2022/05/17 01:59:09;;;;;;;1.70;0.88;;;;;;;5.01;76.00;102183.28;4896282;29;20072;-78
2022/05/17 02:01:35;;;;;;;2.38;1.00;;;;;;;5.04;76.63;102199.03;4896168;29;20060;-78
2022/05/17 02:04:00;;;;;;;2.65;1.10;;;;;;;4.97;77.44;102193.34;4881435;29;20032;-78
2022/05/17 02:06:26;;;;;;;2.30;1.10;;;;;;;4.93;77.93;102192.78;4901381;29;20044;-79
2022/05/17 02:08:51;;;;;;;1.42;0.88;;;;;;;4.68;77.63;102148.63;4885064;29;20382;-78
2022/05/17 02:11:17;;;;;;;3.85;0.93;;;;;;;4.94;77.48;102198.94;4897788;29;20463;-78
2022/05/17 02:13:42;;;;;;;1.63;0.82;;;;;;;4.53;78.60;102143.72;4899041;29;20367;-79
2022/05/17 02:16:10;;;;;;;2.05;0.93;;;;;;;4.78;78.62;102193.19;4880983;29;20029;-78
2022/05/17 02:18:35;;;;;;;2.42;1.02;;;;;;;4.81;79.22;102206.28;4897749;29;20051;-78
2022/05/17 02:21:02;;;;;;;2.92;0.77;;;;;;;4.86;79.17;102212.06;4897549;29;20056;-78
2022/05/17 02:23:28;;;;;;;1.58;0.85;;;;;;;4.89;78.35;102212.66;4899922;29;20040;-78
2022/05/17 02:25:53;;;;;;;1.20;0.70;;;;;;;4.68;78.04;102175.28;4881011;29;20053;-78
2022/05/17 02:28:19;;;;;;;1.58;0.70;;;;;;;4.82;78.43;102197.28;4897683;29;20515;-78
2022/05/17 02:30:44;;;;;;;1.80;0.70;;;;;;;4.91;78.73;102220.53;4879930;29;20032;-78
2022/05/17 02:33:11;;;;;;;1.88;0.70;;;;;;;4.89;78.94;102214.47;4880416;29;20526;-79
2022/05/17 02:35:37;;;;;;;4.53;0.93;;;;;;;4.68;79.53;102191.28;4881316;29;20466;-78
2022/05/17 02:38:02;;;;;;;2.85;0.80;;;;;;;4.81;79.89;102211.59;4895007;29;20033;-78
2022/05/17 02:40:28;;;;;;;3.22;0.80;;;;;;;4.81;79.69;102220.44;4897952;29;20048;-78
2022/05/17 02:42:53;;;;;;;2.17;1.08;;;;;;;4.82;79.56;102221.28;4896978;29;20032;-78
2022/05/17 02:45:19;;;;;;;2.45;0.98;;;;;;;4.82;80.18;102224.81;4900208;29;20048;-78
2022/05/17 02:47:44;;;;;;;2.67;0.90;;;;;;;4.69;80.20;102203.63;4899315;29;20048;-78
2022/05/17 02:50:10;;;;;;;3.20;1.00;;;;;;;4.81;80.07;102223.13;4900236;29;20131;-78
2022/05/17 02:52:37;;;;;;;1.92;0.60;;;;;;;4.61;80.28;102195.44;4901857;29;20071;-78
2022/05/17 02:55:02;;;;;;;2.50;0.80;;;;;;;4.77;80.25;102220.81;4901282;29;20131;-78
2022/05/17 02:57:28;;;;;;;4.57;0.93;;;;;;;4.77;80.27;102221.69;4898916;29;20111;-79
2022/05/17 02:59:53;;;;;;;2.13;0.90;;;;;;;4.70;80.39;102208.00;4884515;29;20028;-78
2022/05/17 03:02:18;;;;;;;3.33;0.75;;;;;;;4.69;81.38;102208.13;4899873;29;20410;-79
2022/05/17 03:04:45;;;;;;;2.03;1.00;;;;;;;4.86;80.79;102220.06;4900725;29;20344;-78
2022/05/17 03:07:10;;;;;;;3.00;1.00;;;;;;;5.23;79.48;102217.84;4900057;29;20029;-78
2022/05/17 03:09:36;;;;;;;3.58;0.80;;;;;;;5.62;77.95;102216.25;4885680;29;20089;-78
2022/05/17 03:12:02;;;;;;;3.10;0.80;;;;;;;6.32;75.15;102216.44;4899696;29;20428;-79
2022/05/17 03:14:28;;;;;;;1.95;0.95;;;;;;;6.96;72.25;102207.09;4885770;29;20032;-78
2022/05/17 03:16:53;;;;;;;1.42;0.82;;;;;;;7.52;69.67;102199.13;4900225;29;20032;-78
2022/05/17 03:19:19;;;;;;;1.40;0.80;;;;;;;8.23;67.18;102216.50;4903891;29;20063;-78
2022/05/17 03:21:44;;;;;;;1.35;0.70;;;;;;;8.74;64.47;102215.09;4881847;29;20062;-78
2022/05/17 03:24:10;;;;;;;1.35;0.77;;;;;;;9.02;62.48;102213.16;4891559;29;20052;-78
2022/05/17 03:26:35;;;;;;;1.48;0.90;;;;;;;9.31;60.69;102190.56;4832310;29;20475;-78
2022/05/17 03:29:00;;;;;;;2.28;0.90;;;;;;;9.38;59.13;102151.34;4847531;29;20033;-78
2022/05/17 03:31:26;;;;;;;2.72;0.80;;;;;;;9.70;57.26;102161.44;4857578;29;20104;-78
2022/05/17 03:33:52;;;;;;;2.65;0.70;;;;;;;10.52;55.73;102226.31;4879039;29;20037;-78
2022/05/17 03:36:17;;;;;;;4.00;1.17;;;;;;;10.74;53.50;102185.31;4865729;29;20044;-78
2022/05/17 03:38:43;;;;;;;2.30;0.80;;;;;;;11.07;51.92;102224.91;4865654;29;20041;-78
2022/05/17 03:41:08;;;;;;;2.50;1.00;;;;;;;10.90;52.18;102241.06;4877861;29;20045;-78
2022/05/17 03:43:34;;;;;;;1.90;0.70;;;;;;;10.02;55.04;102245.94;4863791;29;20093;-78
2022/05/17 03:45:59;;;;;;;1.15;0.80;;;;;;;9.92;55.30;102223.69;4864609;29;20051;-78
2022/05/17 03:48:26;;;;;;;1.45;0.85;;;;;;;10.22;54.07;102225.84;4881409;29;20096;-78
2022/05/17 03:50:52;;;;;;;1.40;0.70;;;;;;;10.12;53.32;102249.34;4849950;29;20120;-77
2022/05/17 03:53:18;;;;;;;5.82;0.95;;;;;;;10.26;52.59;102238.00;4863999;29;20112;-78
2022/05/17 03:55:44;;;;;;;1.83;1.10;;;;;;;10.63;51.64;102252.97;4872243;29;20040;-79
2022/05/17 03:58:09;;;;;;;3.55;0.90;;;;;;;10.67;51.03;102222.00;4866349;29;20036;-78
2022/05/17 04:00:35;;;;;;;5.05;0.82;;;;;;;11.49;49.60;102257.09;4850564;29;20040;-79
2022/05/17 04:03:01;;;;;;;3.13;1.13;;;;;;;12.02;47.75;102230.53;4872431;29;20040;-79
2022/05/17 04:05:27;;;;;;;3.97;1.10;;;;;;;12.67;46.52;102236.47;4867998;29;20373;-78
2022/05/17 04:07:52;;;;;;;2.30;0.95;;;;;;;13.54;44.98;102257.84;4895508;29;20020;-79
2022/05/17 04:10:18;;;;;;;1.85;0.90;;;;;;;13.90;44.09;102235.47;4900398;29;20089;-78
2022/05/17 04:12:44;;;;;;;2.63;1.00;;;;;;;14.34;43.67;102259.00;4877811;29;20033;-78
2022/05/17 04:15:14;;;;;;;4.55;1.10;;;;;;;14.57;43.12;102257.03;4863374;29;20487;-78
2022/05/17 04:17:40;;;;;;;2.65;0.80;;;;;;;14.74;43.13;102264.94;4880610;29;20032;-80
2022/05/17 04:20:06;;;;;;;2.63;1.13;;;;;;;14.57;42.60;102259.72;4841604;29;20032;-80
2022/05/17 04:22:31;;;;;;;3.35;1.15;;;;;;;14.63;42.12;102268.09;4894943;29;20067;-79
2022/05/17 04:24:57;;;;;;;3.42;0.90;;;;;;;15.13;41.38;102259.09;4884551;29;20099;-78
2022/05/17 04:27:23;;;;;;;4.45;1.00;;;;;;;15.59;40.75;102271.34;4893966;29;20358;-77
2022/05/17 04:29:49;;;;;;;2.95;0.98;;;;;;;15.67;40.26;102263.13;4895735;29;20020;-78
2022/05/17 04:32:15;;;;;;;4.00;0.93;;;;;;;14.92;40.83;102243.63;4894496;29;20149;-78
2022/05/17 04:34:40;;;;;;;5.57;1.15;;;;;;;14.63;41.43;102270.81;4894711;29;20475;-78
2022/05/17 04:37:06;;;;;;;3.20;1.00;;;;;;;14.90;41.44;102259.28;4879852;29;20069;-77
2022/05/17 04:39:33;;;;;;;2.15;0.75;;;;;;;15.16;41.22;102266.81;4893153;29;20048;-78
2022/05/17 04:41:59;;;;;;;2.63;0.93;;;;;;;14.74;41.27;102248.66;4894701;29;20032;-78
2022/05/17 04:44:25;;;;;;;2.13;0.80;;;;;;;14.68;41.61;102266.53;4894471;29;20038;-78
2022/05/17 04:46:51;;;;;;;1.55;0.80;;;;;;;15.39;40.58;102272.03;4891803;29;20033;-78
2022/05/17 04:49:18;;;;;;;3.97;0.90;;;;;;;15.60;40.20;102270.34;4892389;29;20374;-78
2022/05/17 04:51:44;;;;;;;1.33;0.70;;;;;;;15.38;40.46;102270.34;4892823;29;20044;-79
2022/05/17 04:54:10;;;;;;;2.35;0.90;;;;;;;15.23;40.14;102242.47;4879705;29;20033;-79
2022/05/17 04:56:35;;;;;;;2.08;1.00;;;;;;;15.78;40.55;102265.28;4895923;29;20055;-79
2022/05/17 04:59:02;;;;;;;2.13;0.90;;;;;;;15.35;40.75;102265.31;4894376;29;20077;-78
2022/05/17 05:01:28;;;;;;;2.70;0.80;;;;;;;14.83;41.84;102257.50;4877039;29;20040;-78
2022/05/17 05:03:53;;;;;;;2.28;1.02;;;;;;;14.79;42.13;102279.56;4893928;29;20040;-78
2022/05/17 05:06:19;;;;;;;3.95;0.80;;;;;;;14.83;42.01;102263.75;4893783;29;20065;-78
2022/05/17 05:08:44;;;;;;;2.00;0.90;;;;;;;15.36;41.83;102274.28;4891682;29;20115;-78
2022/05/17 05:11:10;;;;;;;3.78;1.00;;;;;;;15.30;41.65;102232.53;4890919;29;20029;-78
2022/05/17 05:13:35;;;;;;;2.30;0.90;;;;;;;15.80;41.93;102276.78;4892484;29;20063;-78
2022/05/17 05:16:01;;;;;;;1.95;0.90;;;;;;;16.01;41.71;102289.44;4894194;29;20028;-78
2022/05/17 05:18:27;;;;;;;2.45;0.82;;;;;;;15.01;42.99;102263.34;4898607;29;20037;-78
2022/05/17 05:21:09;;;;;;;1.48;0.77;;;;;;;15.42;41.69;102287.91;4895421;29;20162;-78
2022/05/17 05:23:35;;;;;;;3.65;1.17;;;;;;;15.31;42.64;102283.03;4875042;29;20033;-79
2022/05/17 05:26:01;;;;;;;2.75;1.05;;;;;;;14.39;43.69;102267.38;4878205;29;20478;-79
2022/05/17 05:28:26;;;;;;;3.03;1.00;;;;;;;14.68;43.87;102284.66;4878871;29;20167;-78
2022/05/17 05:30:54;;;;;;;6.05;1.05;;;;;;;14.36;43.92;102273.16;4889464;29;20039;-78
2022/05/17 05:33:19;;;;;;;5.50;1.10;;;;;;;13.96;44.99;102264.50;4891102;29;20036;-78
2022/05/17 05:35:45;;;;;;;5.18;1.52;;;;;;;13.64;46.43;102292.69;4862335;29;20033;-78
2022/05/17 05:38:10;;;;;;;3.63;1.17;;;;;;;13.08;48.64;102292.13;4892724;29;20060;-78
2022/05/17 05:40:36;;;;;;;2.92;1.35;;;;;;;12.91;49.22;102289.53;4881987;29;20120;-78
2022/05/17 05:43:01;;;;;;;7.40;1.08;;;;;;;12.80;49.17;102271.00;4898893;29;20469;-79
2022/05/17 05:45:26;;;;;;;3.55;1.08;;;;;;;12.83;49.72;102283.31;4867218;29;20092;-79
2022/05/17 05:47:52;;;;;;;2.05;0.90;;;;;;;12.69;50.06;102269.56;4886567;29;20024;-79
2022/05/17 05:50:18;;;;;;;3.55;1.05;;;;;;;12.76;49.62;102290.47;4867172;29;20072;-79
2022/05/17 05:52:44;;;;;;;3.67;0.90;;;;;;;12.85;49.44;102303.75;4898350;29;20040;-78
2022/05/17 05:55:16;;;;;;;2.10;1.00;;;;;;;13.00;49.69;102295.72;4867237;29;20028;-79
2022/05/17 05:57:42;;;;;;;2.85;0.80;;;;;;;13.04;50.61;102305.13;4900471;29;20039;-79
2022/05/17 06:00:08;;;;;;;2.13;1.33;;;;;;;13.31;50.26;102313.75;4867298;29;20355;-77
2022/05/17 06:02:34;;;;;;;3.60;0.90;;;;;;;13.10;51.01;102298.19;4877575;29;20048;-78
2022/05/17 06:05:00;;;;;;;1.25;0.95;;;;;;;12.81;50.72;102294.28;4878243;29;20412;-78
2022/05/17 06:07:25;;;;;;;4.90;1.15;;;;;;;12.79;50.91;102290.09;4875701;29;20035;-77
2022/05/17 06:09:51;;;;;;;4.40;1.10;;;;;;;12.90;51.79;102304.03;4874445;29;20059;-78
2022/05/17 06:12:16;;;;;;;5.35;1.00;;;;;;;12.90;51.97;102308.59;4891693;29;20051;-79
2022/05/17 06:14:42;;;;;;;2.78;0.90;;;;;;;12.91;51.70;102265.22;4877988;29;20048;-79
2022/05/17 06:17:07;;;;;;;3.78;1.10;;;;;;;13.14;51.27;102292.25;4880193;29;20089;-79
2022/05/17 06:19:34;;;;;;;3.55;1.02;;;;;;;13.17;51.29;102310.78;4880939;29;20063;-78
2022/05/17 06:21:59;;;;;;;2.45;0.90;;;;;;;13.20;51.48;102320.41;4885344;29;20048;-79
2022/05/17 06:24:25;;;;;;;2.95;1.05;;;;;;;13.33;51.61;102322.53;4890763;29;20051;-79
2022/05/17 06:26:50;;;;;;;3.17;0.90;;;;;;;13.37;51.53;102304.94;4865699;29;20025;-79
2022/05/17 06:29:16;;;;;;;1.38;1.00;;;;;;;13.27;51.56;102310.59;4895697;29;20060;-79
2022/05/17 06:31:42;;;;;;;1.98;1.08;;;;;;;13.42;51.27;102318.78;4907628;29;20029;-79
2022/05/17 06:34:07;;;;;;;5.93;1.08;;;;;;;13.39;51.74;102324.53;4877190;29;20061;-79
2022/05/17 06:36:33;;;;;;;4.03;1.13;;;;;;;12.54;52.18;102201.09;4863429;29;20471;-79
2022/05/17 06:38:58;;;;;;;4.38;1.00;;;;;;;13.47;51.16;102320.91;4896193;29;20148;-78
2022/05/17 06:41:24;;;;;;;5.20;1.00;;;;;;;13.46;51.60;102309.25;4895303;29;20029;-78
2022/05/17 06:43:49;;;;;;;3.47;1.02;;;;;;;13.66;51.25;102327.69;4878885;29;20037;-79
2022/05/17 06:46:14;;;;;;;2.67;0.90;;;;;;;13.63;51.40;102332.44;4895411;29;20575;-79
2022/05/17 06:48:40;;;;;;;5.60;0.93;;;;;;;13.42;51.95;102328.75;4896807;29;20033;-79
2022/05/17 06:51:07;;;;;;;2.92;1.00;;;;;;;13.39;51.65;102319.97;4896849;29;20035;-79
2022/05/17 06:53:33;;;;;;;3.28;1.30;;;;;;;13.33;51.89;102322.53;4881384;29;20134;-79
2022/05/17 06:55:59;;;;;;;5.18;1.05;;;;;;;13.66;51.38;102331.25;4881072;29;20032;-79
2022/05/17 06:58:28;;;;;;;1.90;0.80;;;;;;;13.92;51.73;102349.78;4903430;29;20137;-80
2022/05/17 07:00:55;;;;;;;1.98;1.00;;;;;;;14.04;51.17;102353.72;4897143;29;20033;-80
2022/05/17 07:03:20;;;;;;;2.15;0.93;;;;;;;13.81;52.35;102344.81;4896849;29;20036;-80
2022/05/17 07:05:45;;;;;;;1.95;1.00;;;;;;;13.78;51.48;102334.38;4897247;29;20033;-79
2022/05/17 07:08:11;;;;;;;1.38;0.80;;;;;;;13.96;51.21;102345.69;4896615;29;20313;-79
2022/05/17 07:13:21;;;;;;;3.83;0.90;;;;;;;14.22;50.93;102352.53;4894155;29;20043;-79
2022/05/17 07:15:48;;;;;;;3.30;0.95;;;;;;;14.00;51.31;102313.66;4897313;29;20028;-79
2022/05/17 07:18:17;;;;;;;3.03;1.00;;;;;;;14.57;51.08;102351.00;4895876;29;20025;-79
2022/05/17 07:20:43;;;;;;;2.75;1.20;;;;;;;14.28;50.88;102339.09;4893035;29;20360;-79
2022/05/17 07:23:09;;;;;;;2.60;0.93;;;;;;;14.50;50.73;102361.75;4878479;29;20037;-79
2022/05/17 07:25:36;;;;;;;5.72;0.93;;;;;;;14.51;50.12;102355.28;4892591;29;20480;-79
2022/05/17 07:28:01;;;;;;;3.55;0.90;;;;;;;14.17;49.28;102322.47;4897783;29;20056;-79
2022/05/17 07:30:27;;;;;;;1.92;0.95;;;;;;;14.67;48.66;102364.22;4882325;29;20067;-79
2022/05/17 07:32:53;;;;;;;3.30;0.95;;;;;;;14.90;48.73;102367.69;4901819;29;20120;-79
2022/05/17 07:35:18;;;;;;;1.42;0.95;;;;;;;15.00;49.20;102373.66;4882866;29;20061;-80
2022/05/17 07:37:44;;;;;;;1.75;0.90;;;;;;;15.10;48.63;102367.06;4902668;29;20025;-79
2022/05/17 07:40:12;;;;;;;1.63;1.08;;;;;;;15.16;48.94;102371.72;4898672;29;20040;-79
2022/05/17 07:42:40;;;;;;;4.55;0.90;;;;;;;15.16;49.60;102361.72;4885630;29;20060;-80
2022/05/17 07:45:10;;;;;;;1.92;0.90;;;;;;;15.14;48.66;102379.22;4900895;29;20056;-79
2022/05/17 07:47:37;;;;;;;1.55;0.90;;;;;;;15.15;48.46;102342.94;4900489;29;20035;-79
2022/05/17 07:50:03;;;;;;;2.03;1.00;;;;;;;15.27;49.22;102365.81;4899685;29;20029;-79
2022/05/17 07:52:29;;;;;;;1.77;0.85;;;;;;;15.01;48.52;102320.25;4868485;29;20188;-78
2022/05/17 07:54:54;;;;;;;2.72;1.00;;;;;;;15.26;49.26;102381.25;4900297;29;20024;-79
2022/05/17 07:57:21;;;;;;;4.45;1.00;;;;;;;15.32;49.16;102371.47;4868123;29;20025;-79
2022/05/17 07:59:47;;;;;;;3.97;1.15;;;;;;;15.12;49.34;102354.16;4883785;29;20045;-79
2022/05/17 08:02:12;;;;;;;2.00;1.00;;;;;;;15.07;49.52;102318.66;4878862;29;20055;-79
2022/05/17 08:04:38;;;;;;;2.20;1.00;;;;;;;15.39;49.67;102371.56;4884617;29;20036;-79
2022/05/17 08:07:04;;;;;;;2.05;1.10;;;;;;;15.52;50.23;102366.25;4867766;29;20037;-79
2022/05/17 08:09:29;;;;;;;2.95;1.05;;;;;;;15.39;49.30;102334.41;4899256;29;20040;-79
2022/05/17 08:11:55;;;;;;;2.63;0.85;;;;;;;15.61;48.80;102378.66;4900184;29;20116;-79
2022/05/17 08:14:21;;;;;;;1.55;0.82;;;;;;;15.53;48.29;102351.69;4896993;29;20079;-79
2022/05/17 08:16:47;;;;;;;3.40;0.95;;;;;;;15.67;48.28;102358.09;4883916;29;20449;-79
2022/05/17 08:19:13;;;;;;;2.97;1.00;;;;;;;15.42;48.85;102366.56;4870902;29;20130;-79
2022/05/17 08:21:39;;;;;;;1.20;0.90;;;;;;;15.56;49.49;102378.41;4887495;29;20076;-79
2022/05/17 08:24:05;;;;;;;3.50;1.23;;;;;;;15.32;48.80;102335.38;4883756;29;20051;-79
2022/05/17 08:29:15;;;;;;;5.32;1.00;;;;;;;15.56;48.81;102370.25;4900863;29;20059;-79
2022/05/17 08:31:41;;;;;;;1.77;1.00;;;;;;;15.65;47.93;102387.25;4882871;29;20024;-79
2022/05/17 08:34:10;;;;;;;2.08;0.77;;;;;;;15.37;47.70;102319.38;4900977;29;20040;-80
2022/05/17 08:36:35;;;;;;;2.15;0.90;;;;;;;15.83;48.82;102389.56;4883678;29;20032;-79
2022/05/17 08:39:01;;;;;;;1.38;1.05;;;;;;;15.78;50.01;102392.84;4883646;29;20052;-79
2022/05/17 08:41:42;;;;;;;1.55;0.90;;;;;;;15.81;47.95;102389.75;4866851;29;20076;-79
2022/05/17 08:44:13;;;;;;;1.42;0.88;;;;;;;16.11;48.68;102373.28;4899495;29;20032;-79
2022/05/17 08:46:38;;;;;;;3.00;0.82;;;;;;;16.12;46.95;102389.38;4896159;29;20016;-79
2022/05/17 08:49:23;;;;;;;1.38;0.90;;;;;;;16.34;47.02;102382.00;4900320;29;20503;-79
2022/05/17 08:52:04;;;;;;;2.88;1.10;;;;;;;16.41;46.42;102371.19;4898067;29;20116;-79
2022/05/17 08:54:36;;;;;;;2.45;0.90;;;;;;;16.70;46.41;102388.28;4900012;29;20042;-79
2022/05/17 08:57:12;;;;;;;1.48;0.73;;;;;;;16.71;45.28;102400.81;4899561;29;20032;-79
2022/05/17 08:59:37;;;;;;;2.40;0.98;;;;;;;16.59;44.25;102373.41;4898430;29;20195;-79
2022/05/17 09:02:12;;;;;;;2.20;0.90;;;;;;;16.80;43.99;102389.63;4882540;29;20060;-79
2022/05/17 09:04:49;;;;;;;1.77;0.80;;;;;;;16.56;45.25;102371.91;4882615;29;20075;-79
2022/05/17 09:07:26;;;;;;;2.63;0.95;;;;;;;16.59;43.60;102395.13;4884942;29;20032;-79
2022/05/17 09:10:01;;;;;;;3.92;1.08;;;;;;;16.78;44.59;102388.97;4901222;29;20027;-79
2022/05/17 09:12:42;;;;;;;2.67;0.80;;;;;;;16.88;42.95;102403.03;4883269;29;20429;-79
2022/05/17 09:15:10;;;;;;;2.08;0.70;;;;;;;16.66;42.26;102388.69;4899268;29;20490;-79
2022/05/17 09:17:36;;;;;;;2.15;0.82;;;;;;;16.83;42.64;102359.31;4898399;29;20029;-79
2022/05/17 09:20:03;;;;;;;1.20;0.70;;;;;;;16.89;41.65;102393.03;4899251;29;20036;-79
2022/05/17 09:22:29;;;;;;;4.10;0.90;;;;;;;16.95;42.17;102351.41;4897860;29;20060;-79
2022/05/17 09:25:01;;;;;;;2.95;1.77;;;;;;;17.11;41.88;102375.50;4897983;29;20064;-79
2022/05/17 09:27:35;;;;;;;4.72;0.88;;;;;;;17.11;41.18;102371.97;4881751;29;20046;-79
2022/05/17 09:30:11;;;;;;;2.67;1.10;;;;;;;17.03;39.92;102383.88;4882070;29;20455;-79
2022/05/17 09:32:44;;;;;;;3.33;1.05;;;;;;;17.32;40.57;102392.75;4882065;29;20488;-79
2022/05/17 09:35:21;;;;;;;1.70;0.80;;;;;;;17.40;40.78;102391.72;4880739;29;20107;-79
2022/05/17 09:37:53;;;;;;;2.45;0.95;;;;;;;17.26;42.00;102391.69;4880880;29;20340;-79
2022/05/17 09:40:29;;;;;;;3.08;1.02;;;;;;;17.50;40.94;102381.28;4897896;29;20472;-79
2022/05/17 09:42:57;;;;;;;3.08;0.77;;;;;;;17.59;41.17;102386.31;4884361;29;20024;-79
2022/05/17 09:45:58;;;;;;;3.50;1.08;;;;;;;17.50;39.67;102382.09;4887090;29;20367;-79
2022/05/17 09:48:31;;;;;;;3.08;0.80;;;;;;;17.34;39.47;102396.94;4896905;29;20024;-79
2022/05/17 09:53:49;;;;;;;1.07;0.83;;;;;;;17.49;37.29;102377.72;4899158;29;20428;-79
2022/05/17 09:56:16;;;;;;;1.95;0.85;;;;;;;17.60;38.02;102376.25;4881384;29;20290;-78
2022/05/17 09:58:44;;;;;;;2.58;1.00;;;;;;;17.42;36.33;102365.13;4897602;29;20075;-79
2022/05/17 10:01:28;;;;;;;1.50;0.80;;;;;;;17.70;35.59;102351.34;4895814;29;20017;-79
2022/05/17 10:04:09;;;;;;;3.55;0.80;;;;;;;17.99;34.84;102377.38;4881427;29;20029;-79
2022/05/17 10:06:38;;;;;;;1.30;0.80;;;;;;;17.89;33.18;102374.22;4896822;29;20040;-79
2022/05/17 10:09:30;;;;;;;1.95;0.80;;;;;;;17.83;31.13;102360.38;4899550;29;20024;-79
2022/05/17 10:12:33;;;;;;;2.25;0.70;;;;;;;17.96;31.80;102365.00;4901174;29;20040;-78
2022/05/17 10:15:20;;;;;;;3.17;0.80;;;;;;;17.95;30.57;102360.59;4868533;29;20044;-79
2022/05/17 10:17:51;;;;;;;1.50;0.80;;;;;;;17.71;33.20;102348.41;4870016;29;20029;-79
2022/05/17 10:20:41;;;;;;;2.35;1.00;;;;;;;18.01;33.02;102351.59;4863103;29;20037;-79
2022/05/17 10:23:30;;;;;;;1.58;0.82;;;;;;;18.25;33.47;102374.63;4863689;29;20421;-79
2022/05/17 10:26:18;;;;;;;5.53;1.45;;;;;;;18.22;34.25;102366.84;4885573;29;20056;-79
2022/05/17 10:28:52;;;;;;;2.33;1.10;;;;;;;18.34;31.55;102372.47;4896067;29;20036;-78
2022/05/17 10:31:32;;;;;;;2.58;0.90;;;;;;;18.37;31.38;102361.16;4896414;29;20039;-79
2022/05/17 10:34:16;;;;;;;1.25;0.70;;;;;;;18.51;31.55;102353.81;4881913;29;20352;-79
2022/05/17 10:37:00;;;;;;;3.28;0.90;;;;;;;18.36;32.32;102364.09;4880086;29;20044;-79
2022/05/17 10:39:31;;;;;;;1.30;0.80;;;;;;;18.67;33.24;102360.66;4882594;29;20452;-79
2022/05/17 10:41:57;;;;;;;4.05;0.77;;;;;;;18.59;32.57;102369.09;4900745;29;20050;-79
2022/05/17 10:44:26;;;;;;;1.77;0.90;;;;;;;18.78;32.62;102366.31;4881997;29;20032;-79
2022/05/17 10:47:03;;;;;;;3.75;0.73;;;;;;;18.43;31.80;102349.41;4866283;29;20028;-79
2022/05/17 10:49:54;;;;;;;1.70;0.80;;;;;;;18.65;31.20;102368.22;4888798;29;20048;-79
2022/05/17 10:52:30;;;;;;;2.70;0.93;;;;;;;18.43;31.09;102348.56;4895942;29;20028;-79
2022/05/17 10:55:17;;;;;;;2.60;0.70;;;;;;;18.42;31.66;102366.00;4881511;29;20187;-79
2022/05/17 10:58:10;;;;;;;2.38;0.93;;;;;;;18.85;31.37;102362.72;4880445;29;20024;-79
2022/05/17 11:00:47;;;;;;;1.63;0.70;;;;;;;18.89;31.57;102359.34;4879720;29;20036;-79
2022/05/17 11:04:07;;;;;;;2.35;0.90;;;;;;;18.81;31.97;102370.50;4904061;29;20035;-79
2022/05/17 11:07:17;;;;;;;2.35;1.05;;;;;;;18.53;29.25;102371.59;4851825;29;20055;-79
2022/05/17 11:10:11;;;;;;;2.97;0.88;;;;;;;18.43;30.52;102363.03;4854755;29;20054;-80
2022/05/17 11:12:48;;;;;;;1.75;0.82;;;;;;;18.15;30.08;102317.00;4868333;29;20030;-79
2022/05/17 11:15:20;;;;;;;2.03;0.90;;;;;;;18.42;31.60;102355.09;4875695;29;20029;-79
2022/05/17 11:17:58;;;;;;;1.83;0.80;;;;;;;18.63;31.22;102343.88;4881827;29;20100;-79
2022/05/17 11:20:43;;;;;;;3.45;0.75;;;;;;;18.83;30.49;102359.38;4883574;29;20037;-79
2022/05/17 11:23:12;;;;;;;1.50;0.80;;;;;;;18.90;30.28;102352.00;4895182;29;20060;-79
2022/05/17 11:25:52;;;;;;;1.85;0.90;;;;;;;18.76;30.49;102354.78;4884408;29;20119;-79
2022/05/17 11:28:51;;;;;;;3.30;0.90;;;;;;;18.51;31.34;102318.38;4901222;29;20044;-79
2022/05/17 11:31:17;;;;;;;2.75;0.75;;;;;;;18.49;31.41;102350.44;4884622;29;20062;-79
2022/05/17 11:33:43;;;;;;;1.10;0.90;;;;;;;18.72;30.57;102345.38;4883160;29;20040;-79
2022/05/17 11:36:11;;;;;;;2.75;0.75;;;;;;;18.47;30.26;102356.09;4881232;29;20025;-79
2022/05/17 11:38:37;;;;;;;1.23;0.80;;;;;;;18.50;31.06;102368.47;4901610;29;20054;-79
2022/05/17 11:41:17;;;;;;;1.80;0.75;;;;;;;18.41;30.15;102345.22;4884387;29;20082;-79
2022/05/17 11:43:47;;;;;;;3.83;0.88;;;;;;;18.60;29.71;102341.59;4900796;29;20111;-79
2022/05/17 11:46:28;;;;;;;1.70;0.90;;;;;;;18.73;29.77;102347.03;4884044;29;20032;-79
2022/05/17 11:49:15;;;;;;;3.00;0.90;;;;;;;18.41;30.57;102342.50;4900245;29;20519;-79
2022/05/17 11:51:59;;;;;;;3.55;0.90;;;;;;;18.73;29.68;102343.47;4886155;29;20060;-79